createdAt,value
2024-05-09T00:00:43.008Z,7.94
2024-05-09T00:15:40.559Z,7.64
2024-05-09T00:30:38.274Z,7.33
2024-05-09T00:45:36.043Z,7.04
2024-05-09T01:00:37.747Z,6.77
2024-05-09T01:15:31.235Z,6.62
2024-05-09T01:30:33.416Z,6.47
2024-05-09T01:45:26.562Z,6.20
2024-05-09T02:00:29.997Z,5.97
2024-05-09T02:15:21.935Z,5.79
2024-05-09T02:30:25.409Z,5.62
2024-05-09T02:45:17.122Z,5.42
2024-05-09T03:00:18.797Z,5.32
2024-05-09T03:15:12.396Z,5.43
2024-05-09T03:30:10.132Z,5.17
2024-05-09T03:45:07.700Z,4.98
2024-05-09T04:00:05.709Z,4.91
2024-05-09T04:15:02.925Z,5.03
2024-05-09T04:33:01.770Z,5.28
2024-05-09T04:47:59.619Z,5.64
2024-05-09T05:02:56.955Z,6.26
2024-05-09T05:17:54.555Z,10.38
2024-05-09T05:32:52.244Z,11.51
2024-05-09T05:47:49.924Z,10.89
2024-05-09T06:02:47.650Z,10.21
2024-05-09T06:17:45.271Z,10.30
2024-05-09T06:32:42.882Z,10.60
2024-05-09T06:47:40.634Z,11.16
2024-05-09T07:02:38.237Z,11.91
2024-05-09T07:17:35.967Z,12.41
2024-05-09T07:32:33.595Z,12.81
2024-05-09T07:48:13.870Z,13.41
2024-05-09T08:03:00.162Z,13.88
2024-05-09T08:17:57.832Z,14.35
2024-05-09T08:32:55.629Z,15.34
2024-05-09T08:47:53.296Z,16.28
2024-05-09T09:02:51.035Z,16.25
2024-05-09T09:17:48.718Z,16.44
2024-05-09T09:32:46.427Z,16.31
2024-05-09T09:47:44.182Z,16.44
2024-05-09T10:02:41.928Z,17.05
2024-05-09T10:17:39.603Z,16.47
2024-05-09T10:32:37.371Z,16.57
2024-05-09T10:47:35.230Z,17.05
2024-05-09T11:02:32.953Z,16.44
2024-05-09T11:17:30.576Z,16.72
2024-05-09T11:32:28.445Z,17.36
2024-05-09T11:47:26.121Z,18.01
2024-05-09T12:02:23.990Z,17.81
2024-05-09T12:17:28.224Z,17.65
2024-05-09T12:32:19.299Z,18.18
2024-05-09T12:47:16.969Z,21.55
2024-05-09T13:02:14.744Z,23.93
2024-05-09T13:17:12.447Z,24.07
2024-05-09T13:32:10.258Z,22.82
2024-05-09T13:47:07.974Z,20.70
2024-05-09T14:02:05.893Z,18.98
2024-05-09T14:17:03.569Z,18.50
2024-05-09T14:32:01.247Z,18.22
2024-05-09T14:46:59.011Z,17.98
2024-05-09T15:01:56.900Z,17.85
2024-05-09T15:16:54.483Z,17.92
2024-05-09T15:31:52.315Z,17.94
2024-05-09T15:46:50.046Z,17.99
2024-05-09T16:01:47.888Z,17.95
2024-05-09T16:16:45.728Z,17.95
2024-05-09T16:31:43.303Z,18.02
2024-05-09T16:46:41.033Z,18.06
2024-05-09T17:01:38.886Z,17.96
2024-05-09T17:16:36.609Z,17.77
2024-05-09T17:31:34.465Z,17.22
2024-05-09T17:46:32.161Z,16.71
2024-05-09T18:01:29.967Z,16.01
2024-05-09T18:16:27.659Z,15.35
2024-05-09T18:31:25.503Z,14.64
2024-05-09T18:46:23.146Z,13.86
2024-05-09T19:01:20.812Z,13.14
2024-05-09T19:16:18.651Z,12.49
2024-05-09T19:31:16.350Z,11.95
2024-05-09T19:46:13.935Z,11.41
2024-05-09T20:01:11.687Z,10.99
2024-05-09T20:16:09.393Z,10.59
2024-05-09T20:31:07.155Z,10.25
2024-05-09T20:46:04.926Z,9.95
2024-05-09T21:01:02.639Z,9.68
2024-05-09T21:16:00.163Z,9.47
2024-05-09T21:30:57.841Z,9.28
2024-05-09T21:45:55.447Z,9.09
2024-05-09T22:00:53.159Z,8.81
2024-05-09T22:15:50.848Z,8.56
2024-05-09T22:30:48.431Z,8.37
2024-05-09T22:45:46.225Z,8.11
2024-05-09T23:00:43.819Z,7.96
2024-05-09T23:15:41.411Z,7.86
2024-05-09T23:30:40.135Z,7.98
2024-05-09T23:45:37.002Z,7.64
